HELX  Luxor International Airport

Add Bookmark

Luxor, Egypt

Status IATA
Operational LXR
Latitude Longitude
25° 40' 15" N 32° 42' 23" E
25.671000 32.706600
Local (DST + 2) UTC (GMT + 2)
Aug 28, 2014 08:05 Aug 28, 2014 05:05
Sunrise-Sunset Local UTC
Begin Civil Twilight 06:03 03:03
Sunrise 06:26 03:26
Sunset 07:13 16:13
End Civil Twilight 07:37 16:37

Current Weather

METAR Observed VFR
HELX 280400Z 00000KT CAVOK 26/12 Q1006 NOSIG Thu, Aug 28, 2014 @ 04:00 UTC
(1 Hour, 5 Minutes ago)
Visual Flight Rules
Wind Visibility Clouds Conditions
Calm 10 km or more
  • Clear skies
  • No significant weather
Temperatures Readings Precipitation
Current Temp 26°C (79°F)
Dewpoint 12°C (54°F)
Humidity 42%
Altimeter 29.7"Hg
Sea Level Pressure 1006mb
Field Elevation 288.71'
None Recorded

Forecast Weather

TAF
TAF HELX 272300Z 2800/2906 VRB03KT CAVOK
From To
Thu, Aug 28, 2014 @ 00:00 UTC Fri, Aug 29, 2014 @ 06:00 UTC
Wind Visibility Conditions
Varies at 3 knots (6 kph) 10 km or more
  • No significant weather

24 Hour Weather History

Loading
-

24 Hour Weather Graphs

Loading
-

CheckWX.com is intended as a tool to help pilots better visualize weather data. It is not intended as a substitute for an official weather briefing obtained from a Flight Service Station. CheckWX.com does not meet the FAA requirements for an official pre-flight weather briefing. Therefore, it's important that pilots still call and obtain an official FSS pre-flight weather briefing.